sensor_id;sensor_type;location;lat;lon;timestamp;pressure;altitude;pressure_sealevel;temperature;humidity
44453;BME280;30155;52.164;21.236;2022-07-01T00:03:41;100267.36;;;21.89;68.21
44453;BME280;30155;52.164;21.236;2022-07-01T00:08:34;100276.41;;;21.95;68.15
44453;BME280;30155;52.164;21.236;2022-07-01T00:13:25;100277.27;;;21.96;68.24
44453;BME280;30155;52.164;21.236;2022-07-01T00:18:17;100272.97;;;21.93;68.33
44453;BME280;30155;52.164;21.236;2022-07-01T00:23:08;100274.81;;;21.91;68.49
44453;BME280;30155;52.164;21.236;2022-07-01T00:27:59;100284.07;;;21.91;68.75
44453;BME280;30155;52.164;21.236;2022-07-01T00:32:50;100280.73;;;21.86;68.80
44453;BME280;30155;52.164;21.236;2022-07-01T00:37:43;100274.11;;;21.86;69.09
44453;BME280;30155;52.164;21.236;2022-07-01T00:42:39;100278.19;;;21.83;69.49
44453;BME280;30155;52.164;21.236;2022-07-01T00:47:31;100279.51;;;21.83;69.58
44453;BME280;30155;52.164;21.236;2022-07-01T00:52:22;100266.38;;;21.80;69.72
44453;BME280;30155;52.164;21.236;2022-07-01T00:57:13;100265.99;;;21.79;69.71
44453;BME280;30155;52.164;21.236;2022-07-01T01:02:07;100266.05;;;21.77;69.87
44453;BME280;30155;52.164;21.236;2022-07-01T01:07:01;100275.36;;;21.76;70.23
44453;BME280;30155;52.164;21.236;2022-07-01T01:11:53;100281.06;;;21.77;70.34
44453;BME280;30155;52.164;21.236;2022-07-01T01:16:44;100286.36;;;21.77;70.68
44453;BME280;30155;52.164;21.236;2022-07-01T01:21:36;100283.77;;;21.75;70.79
44453;BME280;30155;52.164;21.236;2022-07-01T01:26:28;100283.30;;;21.76;70.91
44453;BME280;30155;52.164;21.236;2022-07-01T01:31:28;100285.76;;;21.68;70.78
44453;BME280;30155;52.164;21.236;2022-07-01T01:36:21;100288.07;;;21.66;71.08
44453;BME280;30155;52.164;21.236;2022-07-01T01:41:12;100294.78;;;21.63;70.96
44453;BME280;30155;52.164;21.236;2022-07-01T01:46:03;100300.64;;;21.59;71.09
44453;BME280;30155;52.164;21.236;2022-07-01T01:50:55;100310.00;;;21.56;71.25
44453;BME280;30155;52.164;21.236;2022-07-01T01:55:46;100309.71;;;21.52;71.38
44453;BME280;30155;52.164;21.236;2022-07-01T02:00:37;100317.74;;;21.49;71.36
44453;BME280;30155;52.164;21.236;2022-07-01T02:05:28;100321.44;;;21.43;71.57
44453;BME280;30155;52.164;21.236;2022-07-01T02:10:20;100331.16;;;21.43;71.69
44453;BME280;30155;52.164;21.236;2022-07-01T02:15:12;100347.41;;;21.44;71.83
44453;BME280;30155;52.164;21.236;2022-07-01T02:20:03;100373.86;;;21.44;71.85
44453;BME280;30155;52.164;21.236;2022-07-01T02:24:55;100385.76;;;21.44;71.92
44453;BME280;30155;52.164;21.236;2022-07-01T02:29:47;100374.56;;;21.50;71.74
44453;BME280;30155;52.164;21.236;2022-07-01T02:34:38;100366.53;;;21.54;71.75
44453;BME280;30155;52.164;21.236;2022-07-01T02:39:30;100383.72;;;21.54;71.87
44453;BME280;30155;52.164;21.236;2022-07-01T02:44:22;100382.45;;;21.52;71.82
44453;BME280;30155;52.164;21.236;2022-07-01T02:49:14;100377.45;;;21.56;71.85
44453;BME280;30155;52.164;21.236;2022-07-01T02:54:05;100380.00;;;21.59;71.95
44453;BME280;30155;52.164;21.236;2022-07-01T02:58:57;100382.69;;;21.58;71.92
44453;BME280;30155;52.164;21.236;2022-07-01T03:03:48;100377.87;;;21.57;72.22
44453;BME280;30155;52.164;21.236;2022-07-01T03:08:39;100371.64;;;21.58;72.22
44453;BME280;30155;52.164;21.236;2022-07-01T03:13:30;100381.41;;;21.56;72.35
44453;BME280;30155;52.164;21.236;2022-07-01T03:18:21;100390.27;;;21.68;72.37
44453;BME280;30155;52.164;21.236;2022-07-01T03:23:12;100396.31;;;21.97;72.26
44453;BME280;30155;52.164;21.236;2022-07-01T03:28:03;100397.16;;;22.36;71.93
44453;BME280;30155;52.164;21.236;2022-07-01T03:32:55;100400.61;;;22.74;71.42
44453;BME280;30155;52.164;21.236;2022-07-01T03:37:46;100400.36;;;23.26;70.58
44453;BME280;30155;52.164;21.236;2022-07-01T03:42:38;100397.34;;;23.55;69.71
44453;BME280;30155;52.164;21.236;2022-07-01T03:47:30;100390.42;;;23.41;69.35
44453;BME280;30155;52.164;21.236;2022-07-01T03:52:21;100389.48;;;23.32;69.53
44453;BME280;30155;52.164;21.236;2022-07-01T03:57:12;100396.65;;;23.30;69.23
44453;BME280;30155;52.164;21.236;2022-07-01T04:02:04;100387.94;;;23.04;69.48
44453;BME280;30155;52.164;21.236;2022-07-01T04:06:59;100382.65;;;22.92;69.90
44453;BME280;30155;52.164;21.236;2022-07-01T04:11:52;100393.03;;;22.87;70.28
44453;BME280;30155;52.164;21.236;2022-07-01T04:16:45;100393.95;;;22.85;70.70
44453;BME280;30155;52.164;21.236;2022-07-01T04:21:36;100385.88;;;22.89;70.79
44453;BME280;30155;52.164;21.236;2022-07-01T04:26:46;100382.59;;;22.94;70.88
44453;BME280;30155;52.164;21.236;2022-07-01T04:31:37;100384.66;;;22.97;70.76
44453;BME280;30155;52.164;21.236;2022-07-01T04:36:29;100378.66;;;23.04;71.03
44453;BME280;30155;52.164;21.236;2022-07-01T04:41:21;100378.10;;;23.08;71.13
44453;BME280;30155;52.164;21.236;2022-07-01T04:46:31;100376.98;;;23.13;70.69
44453;BME280;30155;52.164;21.236;2022-07-01T04:51:22;100368.41;;;23.29;70.32
44453;BME280;30155;52.164;21.236;2022-07-01T04:56:13;100369.50;;;23.45;70.23
44453;BME280;30155;52.164;21.236;2022-07-01T05:01:04;100366.33;;;23.57;69.84
44453;BME280;30155;52.164;21.236;2022-07-01T05:05:55;100364.06;;;23.69;69.35
44453;BME280;30155;52.164;21.236;2022-07-01T05:10:47;100361.77;;;23.82;68.96
44453;BME280;30155;52.164;21.236;2022-07-01T05:15:38;100358.58;;;23.94;68.86
44453;BME280;30155;52.164;21.236;2022-07-01T05:20:29;100355.03;;;24.04;68.67
44453;BME280;30155;52.164;21.236;2022-07-01T05:25:38;100357.14;;;24.16;68.56
44453;BME280;30155;52.164;21.236;2022-07-01T05:30:30;100355.80;;;24.26;68.36
44453;BME280;30155;52.164;21.236;2022-07-01T05:35:21;100349.90;;;24.49;68.25
44453;BME280;30155;52.164;21.236;2022-07-01T05:40:12;100347.62;;;24.60;67.76
44453;BME280;30155;52.164;21.236;2022-07-01T05:45:04;100331.50;;;25.19;66.75
44453;BME280;30155;52.164;21.236;2022-07-01T05:49:56;100339.03;;;25.63;66.23
44453;BME280;30155;52.164;21.236;2022-07-01T05:54:47;100346.38;;;26.01;65.62
44453;BME280;30155;52.164;21.236;2022-07-01T05:59:38;100338.67;;;26.62;64.11
44453;BME280;30155;52.164;21.236;2022-07-01T06:04:30;100338.84;;;26.50;63.95
44453;BME280;30155;52.164;21.236;2022-07-01T06:09:21;100334.48;;;26.49;63.67
44453;BME280;30155;52.164;21.236;2022-07-01T06:14:12;100331.25;;;26.51;63.65
44453;BME280;30155;52.164;21.236;2022-07-01T06:19:05;100332.06;;;26.60;63.37
44453;BME280;30155;52.164;21.236;2022-07-01T06:23:56;100325.30;;;26.71;63.09
44453;BME280;30155;52.164;21.236;2022-07-01T06:28:47;100331.36;;;26.81;62.86
44453;BME280;30155;52.164;21.236;2022-07-01T06:33:38;100325.28;;;27.03;62.12
44453;BME280;30155;52.164;21.236;2022-07-01T06:38:30;100321.07;;;27.59;61.30
44453;BME280;30155;52.164;21.236;2022-07-01T06:43:21;100324.34;;;27.79;61.05
44453;BME280;30155;52.164;21.236;2022-07-01T06:48:13;100329.92;;;28.55;59.76
44453;BME280;30155;52.164;21.236;2022-07-01T06:53:05;100318.98;;;28.50;59.88
44453;BME280;30155;52.164;21.236;2022-07-01T06:57:57;100309.01;;;28.74;59.18
44453;BME280;30155;52.164;21.236;2022-07-01T07:02:48;100312.03;;;29.82;57.43
44453;BME280;30155;52.164;21.236;2022-07-01T07:07:39;100316.64;;;29.80;57.33
44453;BME280;30155;52.164;21.236;2022-07-01T07:12:30;100309.89;;;29.75;56.24
44453;BME280;30155;52.164;21.236;2022-07-01T07:17:21;100306.44;;;29.73;56.99
44453;BME280;30155;52.164;21.236;2022-07-01T07:22:13;100306.72;;;29.88;56.41
44453;BME280;30155;52.164;21.236;2022-07-01T07:27:04;100302.07;;;30.90;54.28
44453;BME280;30155;52.164;21.236;2022-07-01T07:31:55;100307.05;;;32.23;52.69
44453;BME280;30155;52.164;21.236;2022-07-01T07:36:46;100301.39;;;35.38;47.83
44453;BME280;30155;52.164;21.236;2022-07-01T07:41:37;100295.22;;;37.70;45.05
44453;BME280;30155;52.164;21.236;2022-07-01T07:46:29;100298.05;;;38.80;42.21
44453;BME280;30155;52.164;21.236;2022-07-01T07:51:21;100301.05;;;40.63;39.48
44453;BME280;30155;52.164;21.236;2022-07-01T07:56:13;100299.09;;;42.30;36.64
44453;BME280;30155;52.164;21.236;2022-07-01T08:01:04;100294.83;;;42.90;36.08
44453;BME280;30155;52.164;21.236;2022-07-01T08:05:55;100297.05;;;43.68;34.41
44453;BME280;30155;52.164;21.236;2022-07-01T08:10:46;100299.78;;;42.17;34.74
44453;BME280;30155;52.164;21.236;2022-07-01T08:15:38;100306.72;;;40.13;35.73
44453;BME280;30155;52.164;21.236;2022-07-01T08:20:30;100285.85;;;39.08;36.42
44453;BME280;30155;52.164;21.236;2022-07-01T08:25:21;100305.85;;;38.91;36.38
44453;BME280;30155;52.164;21.236;2022-07-01T08:30:13;100307.84;;;41.51;33.57
44453;BME280;30155;52.164;21.236;2022-07-01T08:35:04;100316.55;;;43.19;32.30
44453;BME280;30155;52.164;21.236;2022-07-01T08:39:56;100319.02;;;44.41;30.55
44453;BME280;30155;52.164;21.236;2022-07-01T08:44:47;100317.90;;;44.97;29.41
44453;BME280;30155;52.164;21.236;2022-07-01T08:49:38;100319.94;;;45.25;28.33
44453;BME280;30155;52.164;21.236;2022-07-01T08:54:29;100310.38;;;45.81;27.51
44453;BME280;30155;52.164;21.236;2022-07-01T08:59:25;100308.24;;;46.42;27.05
44453;BME280;30155;52.164;21.236;2022-07-01T09:04:20;100312.01;;;46.54;25.81
44453;BME280;30155;52.164;21.236;2022-07-01T09:09:14;100310.38;;;46.40;25.34
44453;BME280;30155;52.164;21.236;2022-07-01T09:14:15;100317.63;;;46.66;25.17
44453;BME280;30155;52.164;21.236;2022-07-01T09:19:06;100312.59;;;44.68;26.74
44453;BME280;30155;52.164;21.236;2022-07-01T09:29:18;100308.70;;;40.36;30.11
44453;BME280;30155;52.164;21.236;2022-07-01T09:34:10;100306.47;;;39.88;30.09
44453;BME280;30155;52.164;21.236;2022-07-01T09:39:04;100290.77;;;41.53;28.35
44453;BME280;30155;52.164;21.236;2022-07-01T09:44:03;100296.47;;;41.66;28.03
44453;BME280;30155;52.164;21.236;2022-07-01T09:48:52;100298.89;;;40.81;28.38
44453;BME280;30155;52.164;21.236;2022-07-01T09:53:43;100294.78;;;42.46;26.84
44453;BME280;30155;52.164;21.236;2022-07-01T09:58:35;100287.60;;;43.88;26.09
44453;BME280;30155;52.164;21.236;2022-07-01T10:03:30;100289.75;;;44.92;24.79
44453;BME280;30155;52.164;21.236;2022-07-01T10:08:46;100295.24;;;45.32;24.54
44453;BME280;30155;52.164;21.236;2022-07-01T10:13:54;100277.02;;;45.78;23.47
44453;BME280;30155;52.164;21.236;2022-07-01T10:18:48;100280.29;;;46.13;23.66
44453;BME280;30155;52.164;21.236;2022-07-01T10:23:43;100272.66;;;46.54;22.90
44453;BME280;30155;52.164;21.236;2022-07-01T10:28:43;100283.72;;;46.47;22.81
44453;BME280;30155;52.164;21.236;2022-07-01T10:33:54;100278.50;;;46.26;22.46
44453;BME280;30155;52.164;21.236;2022-07-01T10:44:04;100268.27;;;46.01;21.58
44453;BME280;30155;52.164;21.236;2022-07-01T10:49:00;100268.78;;;45.78;21.98
44453;BME280;30155;52.164;21.236;2022-07-01T10:53:51;100258.39;;;45.51;22.16
44453;BME280;30155;52.164;21.236;2022-07-01T10:58:42;100260.95;;;45.25;22.53
44453;BME280;30155;52.164;21.236;2022-07-01T11:03:36;100254.53;;;44.96;22.58
44453;BME280;30155;52.164;21.236;2022-07-01T11:08:30;100255.11;;;43.78;23.44
44453;BME280;30155;52.164;21.236;2022-07-01T11:13:21;100248.23;;;42.55;24.40
44453;BME280;30155;52.164;21.236;2022-07-01T11:18:14;100242.19;;;41.52;25.52
44453;BME280;30155;52.164;21.236;2022-07-01T11:23:07;100246.91;;;40.59;25.62
44453;BME280;30155;52.164;21.236;2022-07-01T11:27:58;100230.50;;;40.17;26.11
44453;BME280;30155;52.164;21.236;2022-07-01T11:32:52;100229.92;;;39.87;26.46
44453;BME280;30155;52.164;21.236;2022-07-01T11:37:46;100219.17;;;39.62;26.76
44453;BME280;30155;52.164;21.236;2022-07-01T11:42:55;100225.34;;;39.48;26.91
44453;BME280;30155;52.164;21.236;2022-07-01T11:47:46;100216.66;;;39.36;27.08
44453;BME280;30155;52.164;21.236;2022-07-01T11:52:37;100219.19;;;39.33;27.80
44453;BME280;30155;52.164;21.236;2022-07-01T11:57:29;100205.95;;;39.26;27.56
44453;BME280;30155;52.164;21.236;2022-07-01T12:02:22;100194.41;;;39.24;27.75
44453;BME280;30155;52.164;21.236;2022-07-01T12:07:14;100195.41;;;39.31;27.43
44453;BME280;30155;52.164;21.236;2022-07-01T12:12:14;100191.52;;;39.25;27.00
44453;BME280;30155;52.164;21.236;2022-07-01T12:17:07;100190.04;;;38.94;27.25
44453;BME280;30155;52.164;21.236;2022-07-01T12:21:59;100188.84;;;38.93;27.67
44453;BME280;30155;52.164;21.236;2022-07-01T12:27:02;100188.68;;;39.02;27.20
44453;BME280;30155;52.164;21.236;2022-07-01T12:32:06;100182.39;;;39.06;27.71
44453;BME280;30155;52.164;21.236;2022-07-01T12:36:56;100178.84;;;39.05;27.20
44453;BME280;30155;52.164;21.236;2022-07-01T12:41:50;100179.16;;;38.98;27.05
44453;BME280;30155;52.164;21.236;2022-07-01T12:46:41;100180.16;;;38.97;28.40
44453;BME280;30155;52.164;21.236;2022-07-01T12:51:32;100179.84;;;39.04;27.92
44453;BME280;30155;52.164;21.236;2022-07-01T12:56:29;100172.53;;;38.97;26.84
44453;BME280;30155;52.164;21.236;2022-07-01T13:01:19;100173.05;;;38.88;26.78
44453;BME280;30155;52.164;21.236;2022-07-01T13:06:10;100160.47;;;38.95;27.30
44453;BME280;30155;52.164;21.236;2022-07-01T13:11:02;100157.25;;;38.92;26.71
44453;BME280;30155;52.164;21.236;2022-07-01T13:15:53;100158.12;;;38.84;26.53
44453;BME280;30155;52.164;21.236;2022-07-01T13:20:46;100153.02;;;38.81;26.52
44453;BME280;30155;52.164;21.236;2022-07-01T13:25:37;100150.98;;;38.87;26.42
44453;BME280;30155;52.164;21.236;2022-07-01T13:30:28;100158.12;;;38.84;26.88
44453;BME280;30155;52.164;21.236;2022-07-01T13:35:21;100155.06;;;38.87;26.86
44453;BME280;30155;52.164;21.236;2022-07-01T13:40:13;100155.05;;;38.83;26.14
44453;BME280;30155;52.164;21.236;2022-07-01T13:45:05;100148.29;;;38.75;26.56
44453;BME280;30155;52.164;21.236;2022-07-01T13:49:57;100147.94;;;38.74;26.85
44453;BME280;30155;52.164;21.236;2022-07-01T13:54:49;100144.89;;;38.77;26.38
44453;BME280;30155;52.164;21.236;2022-07-01T13:59:40;100144.20;;;38.79;26.33
44453;BME280;30155;52.164;21.236;2022-07-01T14:04:31;100138.10;;;38.64;27.01
44453;BME280;30155;52.164;21.236;2022-07-01T14:09:23;100141.46;;;38.54;26.88
44453;BME280;30155;52.164;21.236;2022-07-01T14:14:14;100136.39;;;38.63;27.16
44453;BME280;30155;52.164;21.236;2022-07-01T14:19:05;100127.25;;;38.60;26.66
44453;BME280;30155;52.164;21.236;2022-07-01T14:24:00;100117.03;;;38.70;26.96
44453;BME280;30155;52.164;21.236;2022-07-01T14:28:53;100117.89;;;38.67;26.52
44453;BME280;30155;52.164;21.236;2022-07-01T14:33:45;100118.37;;;38.54;26.50
44453;BME280;30155;52.164;21.236;2022-07-01T14:38:36;100123.82;;;38.50;26.87
44453;BME280;30155;52.164;21.236;2022-07-01T14:43:27;100117.70;;;38.40;26.81
44453;BME280;30155;52.164;21.236;2022-07-01T14:48:20;100117.72;;;38.31;26.39
44453;BME280;30155;52.164;21.236;2022-07-01T14:53:11;100118.04;;;38.16;26.00
44453;BME280;30155;52.164;21.236;2022-07-01T14:58:02;100117.99;;;38.04;26.28
44453;BME280;30155;52.164;21.236;2022-07-01T15:02:54;100103.58;;;38.03;26.19
44453;BME280;30155;52.164;21.236;2022-07-01T15:07:46;100101.52;;;37.97;26.33
44453;BME280;30155;52.164;21.236;2022-07-01T15:12:37;100104.40;;;37.87;26.35
44453;BME280;30155;52.164;21.236;2022-07-01T15:17:28;100082.84;;;37.69;26.08
44453;BME280;30155;52.164;21.236;2022-07-01T15:22:19;100089.87;;;37.54;26.25
44453;BME280;30155;52.164;21.236;2022-07-01T15:27:10;100095.28;;;37.50;26.67
44453;BME280;30155;52.164;21.236;2022-07-01T15:32:02;100095.08;;;37.39;26.77
44453;BME280;30155;52.164;21.236;2022-07-01T15:36:54;100089.09;;;37.27;26.57
44453;BME280;30155;52.164;21.236;2022-07-01T15:41:46;100092.94;;;37.16;27.00
44453;BME280;30155;52.164;21.236;2022-07-01T15:46:38;100104.72;;;37.07;27.17
44453;BME280;30155;52.164;21.236;2022-07-01T15:51:30;100096.56;;;36.99;27.42
44453;BME280;30155;52.164;21.236;2022-07-01T15:56:21;100105.47;;;36.91;26.60
44453;BME280;30155;52.164;21.236;2022-07-01T16:01:12;100098.08;;;36.75;27.19
44453;BME280;30155;52.164;21.236;2022-07-01T16:06:08;100107.03;;;36.72;27.27
44453;BME280;30155;52.164;21.236;2022-07-01T16:11:12;100117.58;;;36.61;27.44
44453;BME280;30155;52.164;21.236;2022-07-01T16:16:01;100120.85;;;36.47;27.39
44453;BME280;30155;52.164;21.236;2022-07-01T16:20:56;100108.22;;;36.29;27.74
44453;BME280;30155;52.164;21.236;2022-07-01T16:25:48;100104.97;;;36.12;27.67
44453;BME280;30155;52.164;21.236;2022-07-01T16:30:40;100099.47;;;36.03;28.01
44453;BME280;30155;52.164;21.236;2022-07-01T16:35:58;100095.71;;;36.00;28.47
44453;BME280;30155;52.164;21.236;2022-07-01T16:40:53;100102.53;;;35.86;28.14
44453;BME280;30155;52.164;21.236;2022-07-01T16:45:48;100112.66;;;35.71;28.24
44453;BME280;30155;52.164;21.236;2022-07-01T16:50:43;100117.89;;;35.58;28.90
44453;BME280;30155;52.164;21.236;2022-07-01T16:55:41;100102.51;;;35.45;28.88
44453;BME280;30155;52.164;21.236;2022-07-01T17:00:34;100107.38;;;35.27;28.95
44453;BME280;30155;52.164;21.236;2022-07-01T17:05:32;100101.41;;;35.14;29.15
44453;BME280;30155;52.164;21.236;2022-07-01T17:10:22;100087.73;;;35.02;29.76
44453;BME280;30155;52.164;21.236;2022-07-01T17:15:14;100079.45;;;34.89;30.15
44453;BME280;30155;52.164;21.236;2022-07-01T17:20:06;100066.80;;;34.76;30.76
44453;BME280;30155;52.164;21.236;2022-07-01T17:25:14;100054.16;;;34.57;31.03
44453;BME280;30155;52.164;21.236;2022-07-01T17:30:06;100041.77;;;34.41;31.83
44453;BME280;30155;52.164;21.236;2022-07-01T17:35:01;100022.77;;;34.23;32.15
44453;BME280;30155;52.164;21.236;2022-07-01T17:39:54;100018.28;;;34.08;32.73
44453;BME280;30155;52.164;21.236;2022-07-01T17:44:49;100030.78;;;33.64;33.96
44453;BME280;30155;52.164;21.236;2022-07-01T17:49:41;100053.87;;;33.22;34.13
44453;BME280;30155;52.164;21.236;2022-07-01T17:54:34;100061.94;;;32.91;34.95
44453;BME280;30155;52.164;21.236;2022-07-01T17:59:27;100075.72;;;32.61;35.78
44453;BME280;30155;52.164;21.236;2022-07-01T18:04:23;100099.23;;;32.27;36.33
44453;BME280;30155;52.164;21.236;2022-07-01T18:09:19;100113.59;;;32.05;36.82
44453;BME280;30155;52.164;21.236;2022-07-01T18:24:35;100173.84;;;31.40;38.51
44453;BME280;30155;52.164;21.236;2022-07-01T18:29:27;100183.09;;;31.19;38.83
44453;BME280;30155;52.164;21.236;2022-07-01T18:34:25;100188.94;;;31.02;39.12
44453;BME280;30155;52.164;21.236;2022-07-01T18:39:23;100182.97;;;30.79;39.58
44453;BME280;30155;52.164;21.236;2022-07-01T18:44:16;100171.30;;;30.56;40.25
44453;BME280;30155;52.164;21.236;2022-07-01T18:49:07;100177.81;;;30.35;40.79
44453;BME280;30155;52.164;21.236;2022-07-01T18:53:58;100181.20;;;30.19;41.19
44453;BME280;30155;52.164;21.236;2022-07-01T18:58:50;100184.05;;;30.04;41.54
44453;BME280;30155;52.164;21.236;2022-07-01T19:03:41;100185.92;;;29.91;41.95
44453;BME280;30155;52.164;21.236;2022-07-01T19:08:32;100200.20;;;29.79;42.08
44453;BME280;30155;52.164;21.236;2022-07-01T19:13:24;100210.31;;;29.68;42.58
44453;BME280;30155;52.164;21.236;2022-07-01T19:18:15;100206.95;;;29.59;42.93
44453;BME280;30155;52.164;21.236;2022-07-01T19:23:07;100214.90;;;29.48;42.95
44453;BME280;30155;52.164;21.236;2022-07-01T19:27:59;100214.28;;;29.37;43.41
44453;BME280;30155;52.164;21.236;2022-07-01T19:32:50;100217.84;;;29.24;43.48
44453;BME280;30155;52.164;21.236;2022-07-01T19:37:41;100215.77;;;29.15;43.65
44453;BME280;30155;52.164;21.236;2022-07-01T19:42:32;100198.62;;;29.05;43.93
44453;BME280;30155;52.164;21.236;2022-07-01T19:47:25;100189.11;;;28.94;44.25
44453;BME280;30155;52.164;21.236;2022-07-01T19:52:16;100189.09;;;28.81;44.74
44453;BME280;30155;52.164;21.236;2022-07-01T19:57:07;100194.81;;;28.69;44.87
44453;BME280;30155;52.164;21.236;2022-07-01T20:01:58;100202.67;;;28.58;45.50
44453;BME280;30155;52.164;21.236;2022-07-01T20:06:50;100216.04;;;28.50;45.25
44453;BME280;30155;52.164;21.236;2022-07-01T20:11:41;100250.80;;;28.50;45.58
44453;BME280;30155;52.164;21.236;2022-07-01T20:16:32;100264.56;;;28.51;46.49
44453;BME280;30155;52.164;21.236;2022-07-01T20:21:23;100277.63;;;28.49;46.80
44453;BME280;30155;52.164;21.236;2022-07-01T20:26:15;100274.11;;;28.48;46.13
44453;BME280;30155;52.164;21.236;2022-07-01T20:31:07;100260.38;;;28.47;46.14
44453;BME280;30155;52.164;21.236;2022-07-01T20:35:58;100257.35;;;28.32;46.27
44453;BME280;30155;52.164;21.236;2022-07-01T20:40:49;100266.25;;;28.18;47.08
44453;BME280;30155;52.164;21.236;2022-07-01T20:45:40;100271.13;;;28.04;47.04
44453;BME280;30155;52.164;21.236;2022-07-01T20:50:31;100281.79;;;27.83;48.54
44453;BME280;30155;52.164;21.236;2022-07-01T20:55:23;100296.37;;;27.55;48.98
44453;BME280;30155;52.164;21.236;2022-07-01T21:00:15;100299.48;;;27.33;50.10
44453;BME280;30155;52.164;21.236;2022-07-01T21:05:07;100313.86;;;27.15;50.71
44453;BME280;30155;52.164;21.236;2022-07-01T21:09:58;100321.61;;;26.96;51.24
44453;BME280;30155;52.164;21.236;2022-07-01T21:14:49;100330.48;;;26.81;51.23
44453;BME280;30155;52.164;21.236;2022-07-01T21:19:42;100332.22;;;26.82;51.43
44453;BME280;30155;52.164;21.236;2022-07-01T21:24:33;100336.02;;;26.78;51.94
44453;BME280;30155;52.164;21.236;2022-07-01T21:29:25;100336.74;;;26.73;52.27
44453;BME280;30155;52.164;21.236;2022-07-01T21:34:16;100333.22;;;26.72;52.58
44453;BME280;30155;52.164;21.236;2022-07-01T21:39:07;100339.61;;;26.77;52.39
44453;BME280;30155;52.164;21.236;2022-07-01T21:44:01;100355.05;;;26.79;52.65
44453;BME280;30155;52.164;21.236;2022-07-01T21:48:55;100376.78;;;26.80;53.06
44453;BME280;30155;52.164;21.236;2022-07-01T21:53:47;100427.24;;;26.76;53.59
44453;BME280;30155;52.164;21.236;2022-07-01T21:58:40;100474.28;;;26.77;53.05
44453;BME280;30155;52.164;21.236;2022-07-01T22:03:37;100476.52;;;26.69;52.86
44453;BME280;30155;52.164;21.236;2022-07-01T22:08:30;100509.23;;;26.37;53.56
44453;BME280;30155;52.164;21.236;2022-07-01T22:13:23;100525.78;;;26.09;54.27
44453;BME280;30155;52.164;21.236;2022-07-01T22:18:18;100543.77;;;25.59;55.69
44453;BME280;30155;52.164;21.236;2022-07-01T22:23:14;100614.55;;;25.25;55.99
44453;BME280;30155;52.164;21.236;2022-07-01T22:28:06;100608.19;;;24.98;56.49
44453;BME280;30155;52.164;21.236;2022-07-01T22:32:59;100607.27;;;24.79;57.26
44453;BME280;30155;52.164;21.236;2022-07-01T22:37:52;100611.22;;;24.60;58.23
44453;BME280;30155;52.164;21.236;2022-07-01T22:42:49;100579.47;;;24.24;59.21
44453;BME280;30155;52.164;21.236;2022-07-01T22:47:43;100588.18;;;23.95;60.00
44453;BME280;30155;52.164;21.236;2022-07-01T22:52:41;100596.75;;;23.80;60.50
44453;BME280;30155;52.164;21.236;2022-07-01T23:02:47;100623.88;;;23.65;61.42
44453;BME280;30155;52.164;21.236;2022-07-01T23:07:45;100645.75;;;23.59;61.67
44453;BME280;30155;52.164;21.236;2022-07-01T23:13:05;100647.44;;;23.50;62.24
44453;BME280;30155;52.164;21.236;2022-07-01T23:17:57;100621.02;;;23.47;62.53
44453;BME280;30155;52.164;21.236;2022-07-01T23:22:51;100570.66;;;23.34;63.17
44453;BME280;30155;52.164;21.236;2022-07-01T23:27:44;100573.03;;;23.30;63.88
44453;BME280;30155;52.164;21.236;2022-07-01T23:32:35;100622.97;;;23.18;64.37
44453;BME280;30155;52.164;21.236;2022-07-01T23:37:28;100643.38;;;23.16;65.12
44453;BME280;30155;52.164;21.236;2022-07-01T23:42:19;100637.06;;;23.07;65.64
44453;BME280;30155;52.164;21.236;2022-07-01T23:47:10;100605.14;;;23.10;66.10
44453;BME280;30155;52.164;21.236;2022-07-01T23:52:03;100591.66;;;23.05;65.89
44453;BME280;30155;52.164;21.236;2022-07-01T23:56:55;100593.76;;;22.95;65.71
